Aviation Digital Data Service (ADDS)

Output produced by METARs form (1305 UTC 10 July 2020)
found at http://www.aviationweather.gov/metar/data/
 
KBNA 101253Z 27006KT 10SM FEW025 28/22 A2996 RMK AO2 SLP137 T02780222
KBNA 101125Z 1012/1112 20003KT P6SM FEW050 
     FM101900 29008G14KT P6SM VCTS SCT050CB 
     FM110000 32010G15KT P6SM SCT250 
     FM110400 VRB04KT P6SM SCT250